Bryant, Wisconsin
Current Conditions -  °F | °C
As of 7:55 AM on Wednesday 28 Jan 2015 (Local Time) from KAIG Reporting Station
Overcast Overcast  
Wind Chill:   Ceiling: 1000
Heat Index: 20°   Visibility: 7mi
Dew Point: 18°   Wind: 12mph
Humidity: 92%   Direction: 170°S
Pressure: 30.14"   Gusts: NA
Location:  45.21°N, 89.02°W
Report Text: KAIG 281355Z AUTO 17010KT 7SM OVC010 M06/M08 A3014 RMK AO2 T10651076
Loading
Personal Weather Stations






























Interactive Weather Map New forecast layout! Learn more

10-Day Weather Forecast

Advertisements
Track Severe Weather on mobile